Time;durP1;ratioP1;P1;durP2;ratioP2;P2;SDS_P1;SDS_P2;PMS_P1;PMS_P2;Temp;Humidity;BMP_temperature;BMP_pressure;BME280_temperature;BME280_humidity;BME280_pressure;Samples;Min_cycle;Max_cycle;Signal;HPM_P1;HPM_P2
2022/09/03 00:01:15;;;;;;;28.33;19.40;;;;;;;22.05;100.00;99574.31;5003759;28;20336;-68
2022/09/03 00:03:46;;;;;;;27.67;20.05;;;;;;;22.28;100.00;99576.91;5002706;28;20041;-68
2022/09/03 00:06:18;;;;;;;27.73;20.08;;;;;;;22.30;100.00;99582.06;5003807;28;20308;-68
2022/09/03 00:09:06;;;;;;;35.05;22.58;;;;;;;22.19;100.00;99580.22;5001421;28;20130;-68
2022/09/03 00:11:40;;;;;;;38.80;24.05;;;;;;;22.00;100.00;99558.00;5001386;28;20097;-68
2022/09/03 00:14:11;;;;;;;38.97;24.75;;;;;;;22.07;100.00;99582.16;5000427;28;20288;-68
2022/09/03 00:16:49;;;;;;;41.30;24.90;;;;;;;22.04;100.00;99578.06;4982575;28;20127;-68
2022/09/03 00:19:27;;;;;;;35.05;23.80;;;;;;;22.28;100.00;99582.28;4998472;28;21145;-68
2022/09/03 00:22:06;;;;;;;37.13;23.33;;;;;;;22.06;100.00;99575.13;4999642;28;20042;-68
2022/09/03 00:24:37;;;;;;;33.85;22.88;;;;;;;22.04;100.00;99578.06;4999668;28;20049;-68
2022/09/03 00:27:12;;;;;;;31.90;22.30;;;;;;;22.02;100.00;99580.16;4999817;28;20050;-68
2022/09/03 00:29:44;;;;;;;30.63;20.98;;;;;;;22.02;100.00;99576.63;4999398;28;20286;-68
2022/09/03 00:32:17;;;;;;;35.78;22.25;;;;;;;21.92;100.00;99582.66;5000145;28;20038;-68
2022/09/03 00:34:51;;;;;;;36.05;23.23;;;;;;;21.80;100.00;99574.56;4999346;28;20505;-68
2022/09/03 00:37:17;;;;;;;33.10;22.27;;;;;;;21.88;100.00;99560.75;4999188;28;20133;-68
2022/09/03 00:39:43;;;;;;;39.65;21.63;;;;;;;21.71;100.00;99573.31;4999874;28;20045;-68
2022/09/03 00:42:17;;;;;;;31.25;21.42;;;;;;;21.77;100.00;99571.53;5000275;28;20042;-68
2022/09/03 00:44:55;;;;;;;27.05;20.60;;;;;;;21.78;100.00;99565.91;5000643;28;20034;-68
2022/09/03 00:47:23;;;;;;;26.95;20.13;;;;;;;21.82;100.00;99564.38;4999852;28;20069;-68
2022/09/03 00:50:10;;;;;;;30.75;20.27;;;;;;;21.66;100.00;99571.34;4999406;28;20563;-68
2022/09/03 00:52:44;;;;;;;29.48;19.33;;;;;;;21.67;100.00;99572.16;5000028;28;20332;-68
2022/09/03 00:55:30;;;;;;;24.63;18.00;;;;;;;21.65;100.00;99569.69;4998969;28;20042;-68
2022/09/03 00:58:20;;;;;;;31.88;17.88;;;;;;;21.64;100.00;99569.94;4999636;28;20084;-68
2022/09/03 01:00:46;;;;;;;23.00;15.85;;;;;;;21.69;100.00;99572.72;4999345;28;20054;-68
2022/09/03 01:03:35;;;;;;;31.50;17.08;;;;;;;21.71;100.00;99576.00;4999532;28;20255;-69
2022/09/03 01:06:17;;;;;;;23.63;17.45;;;;;;;21.75;100.00;99576.34;4999910;28;20027;-68
2022/09/03 01:08:46;;;;;;;27.17;16.75;;;;;;;21.79;100.00;99569.41;4999822;28;20056;-68
2022/09/03 01:11:30;;;;;;;22.70;16.40;;;;;;;21.91;100.00;99570.22;4999812;28;20042;-68
2022/09/03 01:14:01;;;;;;;22.75;16.55;;;;;;;21.84;100.00;99575.72;4999864;28;20026;-68
2022/09/03 01:16:39;;;;;;;24.83;17.55;;;;;;;21.75;100.00;99576.34;4998907;28;20049;-69
2022/09/03 01:19:05;;;;;;;23.50;17.20;;;;;;;21.70;100.00;99577.06;4981459;28;20136;-69
2022/09/03 01:21:30;;;;;;;29.13;16.88;;;;;;;21.76;100.00;99576.09;4999005;28;20038;-68
2022/09/03 01:24:33;;;;;;;27.30;17.45;;;;;;;21.89;100.00;99573.16;4998805;28;20065;-68
2022/09/03 01:27:09;;;;;;;27.50;17.13;;;;;;;21.67;100.00;99575.66;4996123;28;20030;-68
2022/09/03 01:29:54;;;;;;;21.38;17.23;;;;;;;21.70;100.00;99582.44;4998669;28;20022;-68
2022/09/03 01:32:42;;;;;;;24.77;16.85;;;;;;;21.63;100.00;99582.59;4998334;28;20030;-68
2022/09/03 01:35:28;;;;;;;22.17;16.98;;;;;;;21.66;100.00;99579.41;4997821;28;20034;-68
2022/09/03 01:38:25;;;;;;;27.02;16.98;;;;;;;21.63;100.00;99577.19;4998273;28;20033;-68
2022/09/03 01:44:08;;;;;;;25.45;17.92;;;;;;;21.67;100.00;99582.94;4997302;28;20033;-68
2022/09/03 01:46:39;;;;;;;23.70;16.60;;;;;;;21.76;100.00;99584.19;4998713;28;20030;-68
2022/09/03 01:49:27;;;;;;;23.15;16.40;;;;;;;21.81;100.00;99576.22;4998896;28;20524;-69
2022/09/03 01:52:05;;;;;;;24.73;16.60;;;;;;;21.69;100.00;99586.19;4998497;28;20041;-68
2022/09/03 01:54:57;;;;;;;25.27;15.95;;;;;;;21.87;100.00;99575.28;4998243;28;20094;-68
2022/09/03 01:57:55;;;;;;;23.20;16.23;;;;;;;21.86;100.00;99573.66;4997226;28;20041;-68
2022/09/03 02:00:20;;;;;;;24.77;16.67;;;;;;;21.62;100.00;99577.44;4998851;28;20033;-68
2022/09/03 02:02:51;;;;;;;21.38;16.48;;;;;;;21.73;100.00;99586.53;4998429;28;20026;-68
2022/09/03 02:05:21;;;;;;;20.80;16.73;;;;;;;21.78;100.00;99576.69;4997825;28;20302;-68
2022/09/03 02:07:54;;;;;;;21.42;15.80;;;;;;;21.82;100.00;99572.47;4998285;28;20258;-68
2022/09/03 02:10:26;;;;;;;18.35;15.45;;;;;;;21.81;100.00;99576.22;4998322;28;20022;-68
2022/09/03 02:12:55;;;;;;;25.50;16.17;;;;;;;21.77;100.00;99574.22;4998883;28;20034;-68
2022/09/03 02:15:23;;;;;;;26.27;15.73;;;;;;;21.79;100.00;99581.03;4998147;28;20061;-68
2022/09/03 02:17:55;;;;;;;22.90;16.25;;;;;;;21.74;100.00;99591.69;4999108;28;20030;-68
2022/09/03 02:20:24;;;;;;;21.20;15.50;;;;;;;21.87;100.00;99585.25;4998483;28;20034;-68
2022/09/03 02:22:53;;;;;;;28.48;15.13;;;;;;;21.58;100.00;99600.53;4997614;28;20044;-68
2022/09/03 02:25:22;;;;;;;24.65;15.43;;;;;;;21.73;100.00;99600.84;4997498;28;20052;-68
2022/09/03 02:27:49;;;;;;;18.98;14.40;;;;;;;21.77;100.00;99607.38;4998202;28;20034;-68
2022/09/03 02:30:16;;;;;;;23.77;15.38;;;;;;;21.68;100.00;99606.13;4997763;28;20030;-69
2022/09/03 02:32:42;;;;;;;26.73;15.77;;;;;;;21.59;100.00;99619.16;4998212;28;20026;-68
2022/09/03 02:35:08;;;;;;;23.45;15.27;;;;;;;21.76;100.00;99613.84;4998576;28;20191;-68
2022/09/03 02:37:33;;;;;;;28.73;15.63;;;;;;;21.88;100.00;99617.34;4997720;28;20323;-68
2022/09/03 02:39:59;;;;;;;24.70;16.13;;;;;;;21.77;100.00;99617.34;4997624;28;20027;-68
2022/09/03 02:42:25;;;;;;;19.83;15.20;;;;;;;21.65;100.00;99623.59;4998360;28;20035;-68
2022/09/03 02:45:09;;;;;;;22.73;14.55;;;;;;;21.78;100.00;99629.78;4997734;28;20034;-68
2022/09/03 02:47:36;;;;;;;25.45;15.25;;;;;;;21.83;100.00;99629.88;4997651;28;20652;-68
2022/09/03 02:50:02;;;;;;;22.05;15.18;;;;;;;21.90;100.00;99622.50;4998054;28;20042;-68
2022/09/03 02:52:27;;;;;;;19.92;14.27;;;;;;;21.94;100.00;99612.88;4997489;28;20312;-68
2022/09/03 02:54:52;;;;;;;24.15;14.48;;;;;;;21.91;100.00;99614.19;4998111;28;20061;-68
2022/09/03 02:57:18;;;;;;;21.38;14.00;;;;;;;21.91;100.00;99614.19;4997058;28;20043;-68
2022/09/03 02:59:44;;;;;;;21.15;14.20;;;;;;;21.79;100.00;99617.94;5000964;28;20073;-69
2022/09/03 03:02:11;;;;;;;21.80;14.85;;;;;;;21.85;100.00;99622.41;5000953;28;20045;-68
2022/09/03 03:04:37;;;;;;;19.30;14.50;;;;;;;21.85;100.00;99611.63;5001593;28;20253;-68
2022/09/03 03:07:03;;;;;;;21.75;14.35;;;;;;;22.01;98.86;99618.13;4999613;28;20370;-68
2022/09/03 03:09:29;;;;;;;20.48;14.85;;;;;;;21.84;99.47;99618.03;4984013;28;20022;-68
2022/09/03 03:11:54;;;;;;;21.13;14.40;;;;;;;21.79;99.65;99605.28;5002215;28;20200;-68
2022/09/03 03:14:21;;;;;;;18.27;13.85;;;;;;;21.94;98.60;99619.09;5001111;28;20339;-68
2022/09/03 03:16:47;;;;;;;19.92;14.52;;;;;;;21.83;98.88;99617.22;5001289;28;20227;-68
2022/09/03 03:19:12;;;;;;;21.65;15.18;;;;;;;21.79;98.68;99612.53;5001830;28;20030;-68
2022/09/03 03:21:39;;;;;;;21.10;14.45;;;;;;;21.79;98.68;99612.53;5001327;28;20045;-68
2022/09/03 03:24:05;;;;;;;20.25;14.35;;;;;;;21.70;99.11;99612.09;5001014;28;20034;-68
2022/09/03 03:26:30;;;;;;;19.70;14.93;;;;;;;21.55;99.94;99604.50;5001113;28;20037;-69
2022/09/03 03:28:58;;;;;;;21.85;14.95;;;;;;;21.56;99.44;99602.63;5000670;28;20220;-68
2022/09/03 03:31:24;;;;;;;17.30;13.85;;;;;;;21.45;99.66;99598.09;5000289;28;20022;-68
2022/09/03 03:33:54;;;;;;;22.30;13.07;;;;;;;21.58;99.39;99609.41;5001537;28;20065;-68
2022/09/03 03:36:21;;;;;;;25.15;13.80;;;;;;;21.58;99.11;99605.91;5001113;28;20033;-68
2022/09/03 03:38:47;;;;;;;25.33;13.93;;;;;;;21.47;99.03;99607.56;5000862;28;20034;-68
2022/09/03 03:41:18;;;;;;;24.35;13.80;;;;;;;21.43;99.16;99614.47;5001713;28;20343;-68
2022/09/03 03:43:44;;;;;;;18.98;14.15;;;;;;;21.31;99.79;99608.28;5001334;28;20022;-68
2022/09/03 03:46:10;;;;;;;18.38;13.10;;;;;;;21.37;99.95;99609.22;5000810;28;20035;-69
2022/09/03 03:48:37;;;;;;;20.17;13.15;;;;;;;21.36;99.39;99605.69;5001513;28;20022;-68
2022/09/03 03:51:06;;;;;;;22.88;13.38;;;;;;;21.25;99.91;99612.72;5001421;28;20030;-68
2022/09/03 03:53:33;;;;;;;19.15;13.50;;;;;;;21.16;100.00;99619.50;5000033;28;20053;-68
2022/09/03 03:56:00;;;;;;;20.95;12.90;;;;;;;21.07;100.00;99607.44;5001021;28;20026;-68
2022/09/03 03:58:28;;;;;;;18.88;13.15;;;;;;;21.12;100.00;99607.56;5000778;28;20069;-68
2022/09/03 04:00:53;;;;;;;17.88;12.88;;;;;;;21.15;100.00;99612.47;5000386;28;20450;-68
2022/09/03 04:03:19;;;;;;;22.90;13.10;;;;;;;21.04;100.00;99607.91;4993405;28;20046;-68
2022/09/03 04:05:59;;;;;;;17.10;11.93;;;;;;;21.01;99.61;99586.84;5001086;28;20097;-68
2022/09/03 04:08:27;;;;;;;19.33;12.82;;;;;;;21.07;100.00;99606.63;5001276;28;20030;-68
2022/09/03 04:10:53;;;;;;;20.58;12.50;;;;;;;21.04;100.00;99606.03;4999415;28;20228;-68
2022/09/03 04:13:18;;;;;;;17.17;12.55;;;;;;;21.03;100.00;99620.53;5000662;28;20023;-68
2022/09/03 04:15:44;;;;;;;18.17;12.35;;;;;;;21.14;100.00;99613.53;4999304;28;20140;-68
2022/09/03 04:18:10;;;;;;;18.25;12.27;;;;;;;21.17;99.75;99612.22;5000371;28;20038;-68
2022/09/03 04:20:35;;;;;;;22.20;13.35;;;;;;;21.26;99.48;99629.72;4998547;28;20038;-68
2022/09/03 04:23:01;;;;;;;17.50;12.05;;;;;;;21.16;99.96;99621.38;5000647;28;20038;-68
2022/09/03 04:25:27;;;;;;;16.88;11.88;;;;;;;21.24;99.32;99629.94;4999874;28;20052;-68
2022/09/03 04:27:53;;;;;;;18.42;11.13;;;;;;;21.30;98.46;99623.63;5000081;28;20030;-68
2022/09/03 04:30:19;;;;;;;14.23;10.70;;;;;;;21.35;98.91;99631.81;5000190;28;20030;-68
2022/09/03 04:32:54;;;;;;;15.93;11.77;;;;;;;21.39;98.34;99625.97;4999952;28;20034;-68
2022/09/03 04:35:21;;;;;;;15.43;11.88;;;;;;;21.47;98.23;99631.00;4999689;28;20068;-68
2022/09/03 04:37:47;;;;;;;15.32;11.20;;;;;;;21.32;99.10;99628.78;4999567;28;20358;-68
2022/09/03 04:40:12;;;;;;;18.20;11.80;;;;;;;21.46;98.54;99632.88;5000336;28;20126;-68
2022/09/03 04:42:38;;;;;;;15.65;11.60;;;;;;;21.45;99.14;99638.50;4999984;28;20161;-68
2022/09/03 04:45:04;;;;;;;18.48;11.82;;;;;;;21.52;97.94;99636.50;4999723;28;20022;-69
2022/09/03 04:47:30;;;;;;;16.17;11.27;;;;;;;21.42;98.18;99641.66;4997431;28;20104;-68
2022/09/03 04:49:55;;;;;;;14.95;10.40;;;;;;;21.39;98.42;99637.56;5000171;28;20030;-68
2022/09/03 04:52:21;;;;;;;14.20;10.40;;;;;;;21.44;98.00;99639.53;4999396;28;20040;-68
2022/09/03 04:54:46;;;;;;;15.23;10.25;;;;;;;21.58;98.14;99644.44;4999521;28;20270;-68
2022/09/03 04:57:12;;;;;;;14.98;10.20;;;;;;;21.60;97.46;99652.28;5000082;28;20044;-68
2022/09/03 04:59:39;;;;;;;18.23;10.13;;;;;;;21.39;98.17;99655.59;4999334;28;20034;-68
2022/09/03 05:02:05;;;;;;;18.60;10.07;;;;;;;21.48;98.09;99657.69;4999150;28;20054;-68
2022/09/03 05:04:31;;;;;;;12.93;9.52;;;;;;;21.54;97.41;99640.59;4982263;28;20018;-68
2022/09/03 05:06:56;;;;;;;10.95;8.35;;;;;;;21.60;96.56;99655.81;4996760;28;20081;-68
2022/09/03 05:09:22;;;;;;;14.48;7.43;;;;;;;21.59;97.13;99658.75;4999228;28;20084;-68
2022/09/03 05:11:47;;;;;;;10.77;7.35;;;;;;;21.74;95.61;99663.63;5000326;28;20057;-68
2022/09/03 05:14:13;;;;;;;10.27;6.63;;;;;;;21.83;94.23;99659.53;4996820;28;20340;-68
2022/09/03 05:16:38;;;;;;;10.10;6.55;;;;;;;21.97;94.00;99664.44;4999300;28;20196;-68
2022/09/03 05:19:04;;;;;;;8.88;6.03;;;;;;;22.15;93.24;99668.88;4999722;28;20369;-68
2022/09/03 05:21:31;;;;;;;11.93;8.25;;;;;;;22.15;91.71;99673.47;4999112;28;20018;-68
2022/09/03 05:23:58;;;;;;;7.57;5.18;;;;;;;22.02;93.19;99665.59;4999675;28;20138;-69
2022/09/03 05:26:26;;;;;;;6.00;5.10;;;;;;;21.73;93.56;99667.41;4999632;28;21383;-68
2022/09/03 05:29:07;;;;;;;8.82;5.68;;;;;;;21.73;94.58;99676.28;4998924;28;20019;-68
2022/09/03 05:31:33;;;;;;;10.80;6.50;;;;;;;21.89;95.13;99669.38;4998869;28;20049;-68
2022/09/03 05:34:01;;;;;;;11.52;5.55;;;;;;;22.18;93.21;99670.28;4998683;28;20211;-68
2022/09/03 05:36:30;;;;;;;16.08;6.68;;;;;;;22.15;93.55;99682.38;4998239;28;20065;-69
2022/09/03 05:38:57;;;;;;;9.18;5.10;;;;;;;21.85;94.05;99682.53;4996515;28;20022;-68
2022/09/03 05:41:23;;;;;;;10.20;5.65;;;;;;;22.10;94.61;99684.16;4997890;28;20062;-69
2022/09/03 05:43:54;;;;;;;11.52;9.88;;;;;;;22.50;92.12;99684.94;4998981;28;20042;-68
2022/09/03 05:46:28;;;;;;;6.53;4.78;;;;;;;22.87;89.92;99676.44;4998403;28;20054;-69
2022/09/03 05:48:54;;;;;;;6.22;4.57;;;;;;;23.28;86.58;99680.66;4997909;28;20034;-68
2022/09/03 05:51:20;;;;;;;9.13;5.20;;;;;;;23.72;84.94;99684.31;4998695;28;20038;-68
2022/09/03 05:53:48;;;;;;;11.50;7.35;;;;;;;23.96;83.22;99684.13;4999464;28;20022;-68
2022/09/03 05:56:21;;;;;;;8.20;7.00;;;;;;;24.01;82.96;99689.59;4998221;28;20073;-68
2022/09/03 05:58:49;;;;;;;6.05;5.10;;;;;;;23.86;82.74;99696.41;4998880;28;20032;-68
2022/09/03 06:01:24;;;;;;;6.97;5.45;;;;;;;23.67;83.21;99703.16;4998853;28;20054;-68
2022/09/03 06:03:59;;;;;;;9.38;5.28;;;;;;;24.36;81.92;99702.78;4998242;28;20101;-69
2022/09/03 06:06:26;;;;;;;6.97;4.80;;;;;;;24.73;80.41;99703.72;4999661;28;20273;-69
2022/09/03 06:09:01;;;;;;;6.47;5.28;;;;;;;24.74;79.27;99696.41;5000497;28;20329;-68
2022/09/03 06:11:28;;;;;;;7.05;4.72;;;;;;;24.65;79.08;99695.22;4998800;28;20045;-68
2022/09/03 06:13:59;;;;;;;3.95;3.20;;;;;;;24.87;77.10;99696.00;4998813;28;20034;-69
2022/09/03 06:16:24;;;;;;;4.20;3.25;;;;;;;25.08;76.43;99703.28;4998183;28;20345;-68
2022/09/03 06:18:50;;;;;;;8.80;7.28;;;;;;;25.17;75.82;99698.22;4997849;28;20037;-69
2022/09/03 06:21:15;;;;;;;6.82;3.50;;;;;;;25.42;76.22;99703.81;4998671;28;20350;-69
2022/09/03 06:23:41;;;;;;;4.68;2.90;;;;;;;25.81;74.45;99700.03;4980573;28;20037;-68
2022/09/03 06:26:08;;;;;;;5.55;3.30;;;;;;;26.19;73.84;99707.03;4998024;28;20042;-68
2022/09/03 06:28:35;;;;;;;7.72;3.80;;;;;;;25.85;74.06;99701.13;4998581;28;20034;-69
2022/09/03 06:31:05;;;;;;;6.95;4.30;;;;;;;25.73;74.36;99709.47;4997853;28;20371;-69
2022/09/03 06:33:33;;;;;;;7.18;3.55;;;;;;;25.77;72.44;99713.28;4999800;28;20050;-69
2022/09/03 06:36:00;;;;;;;3.70;2.78;;;;;;;25.91;72.32;99709.03;5002441;28;20034;-69
2022/09/03 06:38:27;;;;;;;6.47;3.25;;;;;;;26.39;70.17;99691.66;5005248;28;20038;-69
2022/09/03 06:41:00;;;;;;;6.55;2.97;;;;;;;26.19;69.65;99702.41;5004274;28;20232;-69
2022/09/03 06:43:28;;;;;;;5.00;3.77;;;;;;;26.70;70.38;99694.44;5003993;28;20097;-69
2022/09/03 06:45:58;;;;;;;7.78;3.88;;;;;;;26.51;70.50;99702.28;5004433;28;20491;-69
2022/09/03 06:48:24;;;;;;;7.78;3.75;;;;;;;26.66;70.01;99696.88;5004876;28;20383;-69
2022/09/03 06:51:00;;;;;;;5.10;4.50;;;;;;;26.82;69.36;99695.00;5003763;28;20073;-69
2022/09/03 06:53:27;;;;;;;8.15;5.30;;;;;;;26.81;68.30;99695.28;5004163;28;20026;-69
2022/09/03 06:56:01;;;;;;;9.52;4.82;;;;;;;26.65;69.81;99697.97;5004241;28;20042;-68
2022/09/03 06:58:32;;;;;;;9.35;5.22;;;;;;;27.01;69.01;99690.69;5004011;28;20042;-68
2022/09/03 07:01:05;;;;;;;8.48;5.40;;;;;;;27.31;68.60;99687.19;5004498;28;20042;-68
2022/09/03 07:03:31;;;;;;;10.13;5.55;;;;;;;27.94;67.91;99690.34;5004298;28;20105;-69
2022/09/03 07:06:08;;;;;;;10.02;6.28;;;;;;;28.36;66.90;99691.03;5004247;28;20033;-69
2022/09/03 07:08:34;;;;;;;7.13;5.55;;;;;;;28.78;64.03;99680.44;5003930;28;20034;-69
2022/09/03 07:11:08;;;;;;;8.30;6.00;;;;;;;28.63;64.88;99688.72;5004458;28;20097;-69
2022/09/03 07:13:42;;;;;;;11.10;5.80;;;;;;;28.84;63.35;99692.13;5004802;28;20214;-69
2022/09/03 07:16:11;;;;;;;;;;;;;;;28.57;63.85;99689.84;5005130;28;20058;-69
2022/09/03 07:18:37;;;;;;;9.73;6.13;;;;;;;28.54;63.37;99691.22;5003910;28;19933;-69
2022/09/03 07:21:09;;;;;;;8.38;5.30;;;;;;;28.53;61.82;99686.06;5003905;28;20026;-68
2022/09/03 07:23:36;;;;;;;7.70;4.38;;;;;;;28.69;61.06;99694.94;5003784;28;20026;-69
2022/09/03 07:26:04;;;;;;;4.82;4.10;;;;;;;28.47;61.09;99700.78;5004494;28;20335;-69
2022/09/03 07:28:33;;;;;;;5.88;5.00;;;;;;;28.39;61.82;99701.38;5003565;28;20397;-69
2022/09/03 07:31:09;;;;;;;10.38;7.40;;;;;;;28.50;61.65;99703.78;5003811;28;20046;-69
2022/09/03 07:33:34;;;;;;;5.85;3.65;;;;;;;28.43;58.99;99702.44;5002733;28;20058;-69
2022/09/03 07:36:09;;;;;;;5.80;3.88;;;;;;;28.77;58.76;99697.06;5004664;28;20046;-69
2022/09/03 07:38:35;;;;;;;7.13;4.03;;;;;;;28.94;58.90;99694.78;5003995;28;20327;-69
2022/09/03 07:41:03;;;;;;;7.43;4.20;;;;;;;28.86;59.27;99703.56;5003699;28;20065;-69
2022/09/03 07:43:34;;;;;;;6.40;5.00;;;;;;;28.56;61.01;99704.56;5003934;28;20034;-69
2022/09/03 07:46:00;;;;;;;8.23;6.25;;;;;;;28.41;61.98;99700.00;5000953;28;20320;-69
2022/09/03 07:48:26;;;;;;;11.20;5.55;;;;;;;28.90;62.49;99707.34;4998626;28;20049;-69
2022/09/03 07:50:52;;;;;;;9.45;5.55;;;;;;;29.34;59.19;99710.03;4983305;28;20050;-69
2022/09/03 07:53:21;;;;;;;8.45;5.28;;;;;;;29.22;58.92;99698.69;5000939;28;20046;-69
2022/09/03 07:55:48;;;;;;;6.85;4.65;;;;;;;29.28;58.98;99702.19;5000350;28;20049;-69
2022/09/03 07:58:13;;;;;;;7.50;4.30;;;;;;;29.21;57.99;99697.06;4998376;28;20030;-69
2022/09/03 08:00:39;;;;;;;6.57;4.28;;;;;;;29.32;58.30;99706.78;5001234;28;20038;-69
2022/09/03 08:03:07;;;;;;;8.88;4.40;;;;;;;29.65;58.22;99709.78;5000383;28;20099;-69
2022/09/03 08:05:36;;;;;;;4.28;3.42;;;;;;;29.19;56.76;99710.97;5000174;28;20030;-68
2022/09/03 08:08:05;;;;;;;6.25;3.15;;;;;;;28.82;58.80;99700.56;5000563;28;20031;-69
2022/09/03 08:10:35;;;;;;;4.72;4.03;;;;;;;28.85;58.45;99693.78;5001029;28;20042;-68
2022/09/03 08:13:04;;;;;;;7.57;3.33;;;;;;;29.27;58.89;99692.38;5000379;28;20073;-69
2022/09/03 08:15:30;;;;;;;7.85;3.20;;;;;;;29.32;57.02;99687.69;5000240;28;20046;-69
2022/09/03 08:17:56;;;;;;;4.40;3.47;;;;;;;29.53;56.34;99693.78;5001204;28;20026;-69
2022/09/03 08:20:21;;;;;;;5.15;4.30;;;;;;;29.53;56.47;99691.06;4999914;28;20096;-69
2022/09/03 08:22:47;;;;;;;7.72;4.30;;;;;;;29.59;56.64;99689.09;4999825;28;20033;-69
2022/09/03 08:25:13;;;;;;;5.95;4.30;;;;;;;29.47;55.08;99673.94;5000593;28;20136;-69
2022/09/03 08:27:38;;;;;;;4.85;4.20;;;;;;;29.48;54.46;99686.47;5000034;28;20030;-69
2022/09/03 08:30:08;;;;;;;6.85;4.43;;;;;;;29.81;54.48;99679.28;4999648;28;20034;-68
2022/09/03 08:32:34;;;;;;;6.18;4.30;;;;;;;30.09;55.54;99688.53;4998545;28;20227;-69
2022/09/03 08:34:59;;;;;;;4.93;3.75;;;;;;;30.49;53.62;99687.22;5000216;28;20027;-69
2022/09/03 08:37:27;;;;;;;5.15;4.20;;;;;;;29.91;54.12;99680.28;4999938;28;20089;-69
2022/09/03 08:39:53;;;;;;;6.78;4.35;;;;;;;29.70;54.84;99677.78;4988107;28;20287;-69
2022/09/03 08:42:30;;;;;;;10.40;4.00;;;;;;;29.66;55.96;99681.38;4983153;28;20030;-69
2022/09/03 08:45:01;;;;;;;8.82;4.00;;;;;;;29.28;56.20;99683.09;4999813;28;20041;-69
2022/09/03 08:47:29;;;;;;;7.40;4.38;;;;;;;29.38;55.40;99686.53;4999668;28;20038;-69
2022/09/03 08:49:55;;;;;;;6.28;4.45;;;;;;;29.66;56.20;99678.66;4999590;28;20327;-69
2022/09/03 08:52:25;;;;;;;8.35;4.82;;;;;;;29.45;56.85;99684.31;4999890;28;20110;-69
2022/09/03 08:54:54;;;;;;;6.93;4.43;;;;;;;29.55;55.67;99670.56;4999157;28;20102;-68
2022/09/03 08:57:20;;;;;;;8.45;5.30;;;;;;;29.34;54.88;99680.03;4999058;28;20049;-68
2022/09/03 08:59:51;;;;;;;7.18;4.93;;;;;;;29.30;55.88;99667.25;5000052;28;20069;-68
2022/09/03 09:02:38;;;;;;;5.63;4.20;;;;;;;29.82;54.77;99669.19;4999449;28;20044;-68
2022/09/03 09:05:35;;;;;;;6.75;5.00;;;;;;;29.94;55.82;99655.13;5000095;28;20027;-69
2022/09/03 09:08:27;;;;;;;13.27;5.65;;;;;;;30.18;55.04;99664.97;4985858;28;20056;-69
2022/09/03 09:11:13;;;;;;;6.15;5.05;;;;;;;30.11;54.78;99666.41;4961532;28;20046;-68
2022/09/03 09:13:48;;;;;;;6.20;4.72;;;;;;;30.25;54.08;99675.53;4980856;28;20101;-68
2022/09/03 09:16:37;;;;;;;8.02;5.72;;;;;;;30.46;53.90;99665.97;4997918;28;20022;-69
2022/09/03 09:19:18;;;;;;;6.63;5.00;;;;;;;30.04;53.59;99679.59;4999838;28;20056;-69
2022/09/03 09:21:51;;;;;;;8.15;4.75;;;;;;;29.94;54.16;99666.06;4999577;28;20320;-68
2022/09/03 09:24:25;;;;;;;7.75;4.88;;;;;;;30.02;54.49;99668.97;4999032;28;20046;-68
2022/09/03 09:26:58;;;;;;;8.88;5.57;;;;;;;30.14;54.15;99666.63;4999307;28;20038;-69
2022/09/03 09:29:28;;;;;;;5.82;4.55;;;;;;;30.19;53.84;99663.06;4998522;28;20038;-69
2022/09/03 09:31:54;;;;;;;8.63;5.22;;;;;;;29.96;54.27;99659.19;4999092;28;20050;-69
2022/09/03 09:34:19;;;;;;;7.82;5.47;;;;;;;30.06;54.46;99663.75;4999469;28;20042;-69
2022/09/03 09:36:51;;;;;;;7.68;5.95;;;;;;;30.15;54.50;99667.44;4998991;28;20235;-68
2022/09/03 09:39:17;;;;;;;7.32;6.13;;;;;;;30.31;54.51;99668.91;4998509;28;20331;-68
2022/09/03 09:42:10;;;;;;;9.07;5.85;;;;;;;30.24;54.11;99668.44;4997806;28;20080;-69
2022/09/03 09:44:40;;;;;;;8.00;5.97;;;;;;;30.33;54.00;99660.41;4998218;28;20358;-69
2022/09/03 09:47:24;;;;;;;8.88;6.28;;;;;;;30.21;54.24;99657.31;4998819;28;20030;-69
2022/09/03 09:50:01;;;;;;;8.80;5.77;;;;;;;29.99;54.60;99655.88;4997741;28;20030;-68
2022/09/03 09:52:29;;;;;;;10.90;5.82;;;;;;;29.70;56.10;99666.06;5001939;28;20057;-69
2022/09/03 09:55:08;;;;;;;9.90;5.80;;;;;;;29.79;55.20;99665.13;5001545;28;20038;-69
2022/09/03 09:57:34;;;;;;;8.07;5.43;;;;;;;29.56;54.79;99660.47;5001607;28;20358;-69
2022/09/03 10:00:09;;;;;;;7.45;5.82;;;;;;;29.42;56.22;99665.75;4998947;28;20050;-69
2022/09/03 10:02:36;;;;;;;9.32;5.35;;;;;;;29.47;56.00;99654.84;5001718;28;20034;-69
2022/09/03 10:05:36;;;;;;;6.55;5.20;;;;;;;29.59;55.14;99662.63;5001431;28;20108;-69
2022/09/03 10:08:17;;;;;;;6.22;4.82;;;;;;;29.53;54.70;99642.75;4998247;28;20046;-69
2022/09/03 10:10:49;;;;;;;8.07;5.35;;;;;;;29.55;54.81;99654.19;5001623;28;20041;-68
2022/09/03 10:13:24;;;;;;;6.10;4.90;;;;;;;29.69;55.48;99653.50;5001573;28;20236;-68
2022/09/03 10:16:15;;;;;;;8.30;5.05;;;;;;;29.76;54.91;99651.25;5001494;28;20042;-69
2022/09/03 10:18:52;;;;;;;6.38;5.15;;;;;;;29.91;55.24;99644.78;5000780;28;20383;-69
2022/09/03 10:21:31;;;;;;;8.90;5.80;;;;;;;29.93;54.92;99648.03;5001664;28;20050;-69
2022/09/03 10:24:26;;;;;;;7.70;5.43;;;;;;;29.96;54.79;99639.28;5001085;28;20101;-68
2022/09/03 10:26:51;;;;;;;;;;;;;;;29.91;54.70;99637.41;5002046;28;20073;-69
2022/09/03 10:29:20;;;;;;;9.55;6.10;;;;;;;29.71;55.41;99638.47;5001096;28;19917;-69
2022/09/03 10:32:24;;;;;;;6.75;5.95;;;;;;;29.72;55.29;99633.81;5001820;28;20030;-69
2022/09/03 10:35:11;;;;;;;8.77;6.32;;;;;;;29.64;55.46;99623.56;5001237;28;20098;-69
2022/09/03 10:37:46;;;;;;;8.48;6.05;;;;;;;29.51;57.12;99634.06;5001295;28;20244;-68
2022/09/03 10:40:33;;;;;;;9.23;6.45;;;;;;;29.32;54.62;99626.88;5001354;28;20069;-69
2022/09/03 10:43:08;;;;;;;8.98;5.90;;;;;;;28.97;56.03;99628.00;5001236;28;20090;-68
2022/09/03 10:45:46;;;;;;;10.35;5.80;;;;;;;29.19;56.42;99631.09;5001287;28;20220;-69
2022/09/03 10:48:48;;;;;;;8.00;6.18;;;;;;;29.45;56.48;99637.13;4996132;28;20049;-69
2022/09/03 10:51:33;;;;;;;6.85;5.65;;;;;;;29.63;55.35;99636.38;4998670;28;20064;-69
2022/09/03 10:54:18;;;;;;;8.85;6.00;;;;;;;29.90;53.83;99632.25;4997946;28;20034;-69
2022/09/03 10:56:57;;;;;;;8.32;6.03;;;;;;;29.98;55.51;99639.78;4997599;28;20046;-69
2022/09/03 10:59:34;;;;;;;9.13;5.35;;;;;;;30.04;54.73;99636.72;4997269;28;20042;-69
2022/09/03 11:02:22;;;;;;;8.10;5.97;;;;;;;30.09;54.18;99627.66;4998435;28;20046;-69
2022/09/03 11:04:57;;;;;;;8.32;5.78;;;;;;;30.20;53.99;99634.66;4970366;28;20295;-69
2022/09/03 11:07:36;;;;;;;7.57;5.88;;;;;;;29.93;55.12;99628.94;4997757;28;20022;-69
2022/09/03 11:10:11;;;;;;;7.93;5.30;;;;;;;30.07;53.71;99622.50;4997975;28;20046;-69
2022/09/03 11:12:49;;;;;;;6.85;5.32;;;;;;;30.02;53.99;99628.03;4997577;28;20030;-69
2022/09/03 11:15:36;;;;;;;10.40;5.68;;;;;;;29.84;53.50;99629.59;4997079;28;20050;-68
2022/09/03 11:18:07;;;;;;;6.85;5.35;;;;;;;29.94;52.20;99622.38;4998197;28;20033;-69
2022/09/03 11:20:33;;;;;;;8.02;5.60;;;;;;;29.90;52.95;99624.88;4999670;28;20292;-69
2022/09/03 11:23:03;;;;;;;8.32;5.32;;;;;;;30.15;53.48;99629.22;5001155;28;20029;-69
2022/09/03 11:25:38;;;;;;;7.63;5.22;;;;;;;30.12;51.51;99627.06;5002098;28;20323;-68
2022/09/03 11:28:10;;;;;;;11.18;5.53;;;;;;;30.07;51.66;99632.59;5001432;28;20026;-69
2022/09/03 11:30:48;;;;;;;7.88;5.43;;;;;;;30.09;51.51;99623.00;5001378;28;20098;-69
2022/09/03 11:33:20;;;;;;;10.43;6.38;;;;;;;29.93;49.99;99629.75;5001272;28;20265;-69
2022/09/03 11:35:56;;;;;;;9.13;5.40;;;;;;;29.82;49.22;99618.16;5000709;28;20247;-69
2022/09/03 11:38:27;;;;;;;6.43;5.72;;;;;;;29.75;50.46;99619.59;5001802;28;20053;-69
2022/09/03 11:41:25;;;;;;;7.85;5.90;;;;;;;29.74;49.44;99616.06;5001277;28;20080;-68
2022/09/03 11:43:50;;;;;;;6.82;5.15;;;;;;;29.76;49.07;99619.31;4999072;28;20023;-68
2022/09/03 11:46:22;;;;;;;8.27;5.90;;;;;;;30.06;48.44;99618.13;5001084;28;20049;-68
2022/09/03 11:48:49;;;;;;;9.55;5.45;;;;;;;29.99;48.61;99623.13;5000445;28;20037;-68